Time;durP1;ratioP1;P1;durP2;ratioP2;P2;SDS_P1;SDS_P2;PMS_P1;PMS_P2;Temp;Humidity;BMP_temperature;BMP_pressure;BME280_temperature;BME280_humidity;BME280_pressure;Samples;Min_cycle;Max_cycle;Signal;HPM_P1;HPM_P2
2021/12/11 00:02:09;;;;;;;12.23;3.97;;;6.10;92.20;;;;;;5042069;28;20021;-93
2021/12/11 00:04:39;;;;;;;14.98;4.18;;;6.10;92.20;;;;;;5048801;28;20124;-94
2021/12/11 00:07:09;;;;;;;12.68;3.80;;;6.00;92.30;;;;;;5039935;28;20040;-93
2021/12/11 00:09:52;;;;;;;18.60;4.72;;;6.00;92.50;;;;;;5039282;28;20037;-93
2021/12/11 00:12:22;;;;;;;19.23;5.50;;;6.00;92.50;;;;;;5040437;28;20828;-93
2021/12/11 00:14:54;;;;;;;15.82;4.18;;;6.00;92.60;;;;;;5039275;28;20021;-93
2021/12/11 00:17:31;;;;;;;17.08;4.00;;;5.90;92.70;;;;;;5036483;28;20392;-93
2021/12/11 00:19:58;;;;;;;13.73;3.95;;;5.90;92.70;;;;;;5039646;28;20032;-94
2021/12/11 00:22:28;;;;;;;18.50;4.88;;;5.90;92.80;;;;;;5041134;28;20036;-93
2021/12/11 00:25:09;;;;;;;15.48;4.78;;;5.90;92.90;;;;;;5039966;28;20025;-93
2021/12/11 00:27:38;;;;;;;13.68;3.28;;;6.00;92.90;;;;;;5041093;28;20064;-94
2021/12/11 00:30:10;;;;;;;12.70;3.85;;;6.00;92.90;;;;;;5041351;28;20492;-94
2021/12/11 00:32:37;;;;;;;15.65;5.35;;;6.00;92.90;;;;;;5039893;28;20017;-93
2021/12/11 00:35:12;;;;;;;12.95;4.47;;;6.00;92.90;;;;;;5040600;28;20408;-93
2021/12/11 00:37:38;;;;;;;16.30;4.03;;;6.00;93.00;;;;;;5053913;28;20037;-93
2021/12/11 00:40:09;;;;;;;13.00;3.97;;;6.20;93.10;;;;;;5039078;28;20045;-93
2021/12/11 00:42:35;;;;;;;14.55;3.53;;;6.20;93.20;;;;;;5047711;28;20070;-94
2021/12/11 00:45:09;;;;;;;11.73;3.08;;;6.30;93.60;;;;;;5054464;28;20052;-94
2021/12/11 00:47:41;;;;;;;17.33;3.58;;;6.30;93.70;;;;;;5044366;28;20030;-93
2021/12/11 00:50:11;;;;;;;12.75;3.65;;;6.30;93.70;;;;;;5040965;28;20021;-93
2021/12/11 00:52:39;;;;;;;13.70;4.00;;;6.40;93.80;;;;;;5041531;28;20060;-93
2021/12/11 00:55:24;;;;;;;11.25;2.83;;;6.40;93.70;;;;;;5038487;28;20030;-93
2021/12/11 00:58:15;;;;;;;13.57;3.53;;;6.40;93.80;;;;;;5036206;28;20094;-93
2021/12/11 01:00:59;;;;;;;11.38;3.15;;;6.40;93.90;;;;;;5043410;28;20032;-93
2021/12/11 01:03:33;;;;;;;12.48;3.20;;;6.30;93.90;;;;;;5035680;28;20040;-93
2021/12/11 01:06:01;;;;;;;15.23;3.40;;;6.30;94.10;;;;;;5040899;28;20033;-94
2021/12/11 01:08:39;;;;;;;13.38;3.90;;;6.30;94.20;;;;;;5034984;28;20025;-93
2021/12/11 01:11:37;;;;;;;15.40;3.38;;;6.30;94.50;;;;;;5037384;28;20427;-93
2021/12/11 01:14:13;;;;;;;11.55;3.70;;;6.30;94.70;;;;;;5032162;28;20025;-93
2021/12/11 01:16:41;;;;;;;15.68;3.53;;;6.30;94.70;;;;;;5047927;28;20033;-93
2021/12/11 01:19:08;;;;;;;12.00;2.70;;;6.30;94.70;;;;;;5037877;28;20072;-94
2021/12/11 01:24:10;;;;;;;13.18;4.30;;;6.30;94.70;;;;;;5040434;28;20083;-94
2021/12/11 01:26:43;;;;;;;13.82;2.88;;;6.30;94.70;;;;;;5042574;28;20507;-93
2021/12/11 01:29:09;;;;;;;10.38;3.15;;;6.30;94.70;;;;;;5039031;28;20032;-92
2021/12/11 01:31:35;;;;;;;17.55;3.88;;;6.30;94.80;;;;;;5043794;28;20033;-92
2021/12/11 01:34:02;;;;;;;19.40;4.60;;;6.30;94.80;;;;;;5038166;28;20523;-93
2021/12/11 01:36:29;;;;;;;14.45;4.50;;;6.30;94.90;;;;;;5038123;28;20033;-93
2021/12/11 01:39:02;;;;;;;13.20;3.00;;;6.30;94.90;;;;;;5039816;28;20519;-92
2021/12/11 01:41:29;;;;;;;9.52;2.80;;;6.30;94.70;;;;;;5044189;28;20172;-93
2021/12/11 01:43:58;;;;;;;7.70;2.67;;;6.30;94.60;;;;;;5045188;28;20373;-93
2021/12/11 01:46:26;;;;;;;13.20;3.13;;;6.30;94.40;;;;;;5052670;28;20516;-93
2021/12/11 01:49:03;;;;;;;8.50;3.47;;;6.30;94.30;;;;;;5044715;28;20064;-93
2021/12/11 01:51:37;;;;;;;9.75;3.72;;;6.30;94.20;;;;;;5026288;28;20061;-92
2021/12/11 01:54:20;;;;;;;15.80;5.43;;;6.40;94.20;;;;;;5039081;28;20022;-92
2021/12/11 01:56:57;;;;;;;11.70;4.78;;;6.40;94.40;;;;;;5043279;28;20064;-92
2021/12/11 01:59:34;;;;;;;10.68;4.70;;;6.40;94.60;;;;;;5048043;28;20120;-93
2021/12/11 02:02:03;;;;;;;12.65;4.63;;;6.40;94.60;;;;;;5042122;28;20021;-94
2021/12/11 02:04:31;;;;;;;16.55;4.55;;;6.40;94.50;;;;;;5034296;28;20097;-93
2021/12/11 02:07:03;;;;;;;13.50;3.95;;;6.40;94.40;;;;;;5051628;28;20396;-94
2021/12/11 02:09:33;;;;;;;11.32;4.72;;;6.40;94.60;;;;;;5038449;28;20029;-93
2021/12/11 02:12:14;;;;;;;22.98;6.18;;;6.40;94.60;;;;;;5037090;28;20033;-94
2021/12/11 02:14:45;;;;;;;13.75;6.18;;;6.40;94.50;;;;;;5034823;28;20361;-94
2021/12/11 02:17:19;;;;;;;13.65;4.53;;;6.40;94.50;;;;;;5043189;28;20362;-94
2021/12/11 02:19:46;;;;;;;13.98;4.95;;;6.30;94.50;;;;;;5042309;28;20036;-94
2021/12/11 02:22:38;;;;;;;15.52;4.25;;;6.30;94.40;;;;;;5036927;28;20067;-93
2021/12/11 02:25:11;;;;;;;12.27;4.38;;;6.30;94.50;;;;;;5040255;28;20488;-93
2021/12/11 02:27:53;;;;;;;12.60;4.45;;;6.30;94.50;;;;;;5038746;28;20036;-94
2021/12/11 02:30:32;;;;;;;13.65;4.88;;;6.30;94.70;;;;;;5037771;28;20032;-93
2021/12/11 02:33:10;;;;;;;18.85;4.72;;;6.30;94.70;;;;;;5035272;28;20025;-93
2021/12/11 02:35:41;;;;;;;13.07;3.92;;;6.30;94.70;;;;;;5036466;28;20025;-92
2021/12/11 02:38:23;;;;;;;21.05;4.13;;;6.30;94.80;;;;;;5042931;28;20036;-92
2021/12/11 02:41:08;;;;;;;14.02;3.92;;;6.30;94.90;;;;;;5054545;28;20049;-92
2021/12/11 02:43:45;;;;;;;15.60;3.83;;;6.30;94.90;;;;;;5024329;28;20128;-92
2021/12/11 02:46:23;;;;;;;15.30;3.92;;;6.30;95.00;;;;;;5041046;28;20017;-92
2021/12/11 02:48:56;;;;;;;13.60;3.97;;;6.20;94.90;;;;;;5030300;28;20026;-91
2021/12/11 02:51:38;;;;;;;10.38;4.07;;;6.30;95.00;;;;;;5040934;28;20032;-93
2021/12/11 02:54:15;;;;;;;11.18;3.78;;;6.20;95.00;;;;;;5038059;28;20041;-92
2021/12/11 02:56:55;;;;;;;16.25;3.97;;;6.20;94.90;;;;;;5038428;28;20060;-94
2021/12/11 02:59:26;;;;;;;15.40;4.50;;;6.20;95.00;;;;;;5041559;28;20116;-93
2021/12/11 03:01:58;;;;;;;14.77;4.28;;;6.10;94.90;;;;;;5056349;28;20029;-93
2021/12/11 03:04:34;;;;;;;16.57;4.13;;;6.10;95.00;;;;;;5054220;28;20104;-93
2021/12/11 03:07:03;;;;;;;15.10;4.70;;;6.10;95.00;;;;;;5037569;28;20030;-93
2021/12/11 03:09:32;;;;;;;31.17;5.35;;;6.10;95.10;;;;;;5040520;28;20085;-93
2021/12/11 03:12:03;;;;;;;10.73;3.25;;;6.10;95.00;;;;;;5050457;28;20021;-93
2021/12/11 03:14:31;;;;;;;15.05;4.05;;;6.10;95.00;;;;;;5049129;28;20022;-93
2021/12/11 03:16:58;;;;;;;12.07;3.10;;;6.10;95.00;;;;;;5049204;28;20033;-93
2021/12/11 03:19:29;;;;;;;11.45;3.55;;;6.10;95.00;;;;;;5035945;28;20060;-93
2021/12/11 03:21:57;;;;;;;13.40;3.97;;;6.10;95.10;;;;;;5046124;28;20028;-94
2021/12/11 03:24:25;;;;;;;15.60;4.68;;;6.10;95.10;;;;;;5040269;28;20030;-94
2021/12/11 03:26:53;;;;;;;18.10;3.80;;;6.00;95.00;;;;;;5044935;28;20048;-94
2021/12/11 03:29:22;;;;;;;17.38;5.60;;;6.00;95.30;;;;;;5046328;28;20099;-93
2021/12/11 03:31:48;;;;;;;14.40;4.97;;;5.90;95.00;;;;;;5047666;28;20018;-93
2021/12/11 03:34:20;;;;;;;15.45;3.78;;;5.90;95.00;;;;;;5037103;28;20029;-93
2021/12/11 03:36:47;;;;;;;16.08;4.25;;;5.90;95.10;;;;;;5050814;28;20108;-92
2021/12/11 03:39:17;;;;;;;14.95;3.92;;;5.90;95.20;;;;;;5045310;28;20044;-93
2021/12/11 03:41:46;;;;;;;21.58;5.03;;;5.80;95.20;;;;;;5052881;28;20025;-92
2021/12/11 03:44:13;;;;;;;14.48;4.03;;;5.80;95.30;;;;;;5048185;28;20131;-93
2021/12/11 03:46:39;;;;;;;13.88;3.92;;;5.80;95.40;;;;;;5061858;28;20026;-93
2021/12/11 03:49:14;;;;;;;12.20;3.83;;;5.70;95.40;;;;;;5037988;28;20053;-93
2021/12/11 03:51:46;;;;;;;13.60;4.35;;;5.70;95.30;;;;;;5050614;28;20021;-94
2021/12/11 03:54:16;;;;;;;13.48;4.35;;;5.60;95.10;;;;;;5049019;28;20024;-92
2021/12/11 03:56:42;;;;;;;9.40;3.28;;;5.60;94.90;;;;;;5054787;28;20029;-92
2021/12/11 03:59:10;;;;;;;15.15;3.50;;;5.50;94.90;;;;;;5042781;28;20029;-93
2021/12/11 04:02:08;;;;;;;14.43;3.75;;;5.50;95.00;;;;;;5040770;28;20555;-92
2021/12/11 04:04:44;;;;;;;11.88;3.38;;;5.40;95.10;;;;;;5044067;28;20071;-93
2021/12/11 04:07:15;;;;;;;13.15;4.13;;;5.40;94.90;;;;;;5058115;28;20017;-92
2021/12/11 04:09:41;;;;;;;9.95;4.15;;;5.30;94.70;;;;;;5047515;28;20039;-93
2021/12/11 04:12:08;;;;;;;14.93;4.32;;;5.30;94.60;;;;;;5038473;28;20079;-91
2021/12/11 04:14:39;;;;;;;14.32;3.80;;;5.20;94.40;;;;;;5052990;28;20468;-93
2021/12/11 04:17:06;;;;;;;8.27;3.83;;;5.20;94.20;;;;;;5038740;28;20044;-92
2021/12/11 04:19:32;;;;;;;15.13;4.15;;;5.10;94.20;;;;;;5048546;28;20025;-93
2021/12/11 04:22:02;;;;;;;17.92;4.05;;;5.00;94.20;;;;;;5056398;28;20021;-92
2021/12/11 04:24:30;;;;;;;15.52;4.13;;;5.00;94.30;;;;;;5056757;28;20032;-92
2021/12/11 04:26:58;;;;;;;13.93;3.63;;;5.00;94.30;;;;;;5042280;28;20025;-92
2021/12/11 04:29:24;;;;;;;14.85;4.00;;;4.90;94.20;;;;;;5057853;28;20064;-92
2021/12/11 04:31:53;;;;;;;15.55;7.80;;;4.90;94.10;;;;;;5039991;28;20091;-93
2021/12/11 04:34:21;;;;;;;50.20;18.70;;;4.80;94.00;;;;;;5038301;28;20089;-92
2021/12/11 04:36:58;;;;;;;61.40;24.08;;;4.80;93.90;;;;;;5040118;28;20057;-92
2021/12/11 04:39:26;;;;;;;48.08;19.30;;;4.80;93.90;;;;;;5039655;28;20068;-92
2021/12/11 04:42:05;;;;;;;28.45;11.45;;;4.80;94.00;;;;;;5045602;28;20136;-92
2021/12/11 04:44:39;;;;;;;22.17;8.68;;;4.80;94.20;;;;;;5052458;28;20045;-92
2021/12/11 04:47:15;;;;;;;22.90;9.65;;;4.80;94.10;;;;;;5039957;28;20026;-92
2021/12/11 04:49:53;;;;;;;26.98;11.25;;;4.80;94.00;;;;;;5052439;28;20044;-92
2021/12/11 04:52:33;;;;;;;19.52;9.35;;;4.80;94.00;;;;;;5052383;28;20487;-91
2021/12/11 04:55:25;;;;;;;17.63;7.78;;;4.80;94.00;;;;;;5038174;28;20487;-92
2021/12/11 04:57:58;;;;;;;12.75;6.18;;;4.90;94.00;;;;;;5038635;28;20408;-92
2021/12/11 05:03:24;;;;;;;13.02;4.30;;;5.00;94.20;;;;;;5039040;28;20029;-92
2021/12/11 05:10:56;;;;;;;12.82;4.05;;;5.10;94.10;;;;;;5049523;28;20120;-89
2021/12/11 05:13:24;;;;;;;8.23;3.70;;;5.10;94.10;;;;;;5046174;28;20151;-89
2021/12/11 05:15:52;;;;;;;11.30;4.68;;;5.10;94.00;;;;;;5045052;28;20021;-89
2021/12/11 05:18:21;;;;;;;12.40;4.28;;;5.10;94.00;;;;;;5050094;28;20525;-89
2021/12/11 05:20:51;;;;;;;10.95;4.07;;;5.20;94.10;;;;;;5037460;28;20022;-89
2021/12/11 05:23:17;;;;;;;9.52;4.22;;;5.20;94.10;;;;;;5040223;28;20116;-91
2021/12/11 05:25:44;;;;;;;11.25;4.25;;;5.20;94.10;;;;;;5046810;28;20106;-92
2021/12/11 05:28:10;;;;;;;20.15;7.60;;;5.20;94.10;;;;;;5043555;28;20028;-90
2021/12/11 05:30:41;;;;;;;18.02;6.38;;;5.20;94.10;;;;;;5045532;28;20065;-92
2021/12/11 05:33:10;;;;;;;12.68;5.40;;;5.20;94.10;;;;;;5045928;28;20424;-92
2021/12/11 05:35:38;;;;;;;12.18;5.75;;;5.20;94.10;;;;;;5051493;28;20025;-91
2021/12/11 05:38:07;;;;;;;13.15;6.25;;;5.20;94.10;;;;;;5038797;28;20385;-92
2021/12/11 05:40:36;;;;;;;11.13;5.43;;;5.20;94.10;;;;;;5036761;28;20049;-91
2021/12/11 05:43:03;;;;;;;14.52;5.10;;;5.20;94.10;;;;;;5050909;28;20055;-91
2021/12/11 05:45:29;;;;;;;10.95;4.97;;;5.20;94.10;;;;;;5036661;28;20051;-90
2021/12/11 05:47:55;;;;;;;14.90;5.20;;;5.20;94.10;;;;;;5036967;28;20136;-92
2021/12/11 05:50:28;;;;;;;10.82;4.30;;;5.20;94.10;;;;;;5055287;28;20025;-92
2021/12/11 05:52:54;;;;;;;9.57;4.40;;;5.20;94.10;;;;;;5046757;28;20032;-91
2021/12/11 05:55:22;;;;;;;11.90;3.92;;;5.30;94.20;;;;;;5038466;28;20014;-92
2021/12/11 05:57:53;;;;;;;12.57;4.03;;;5.30;94.10;;;;;;5048760;28;20068;-92
2021/12/11 06:00:24;;;;;;;8.75;3.80;;;5.30;94.20;;;;;;5036901;28;20071;-91
2021/12/11 06:02:50;;;;;;;10.38;4.07;;;5.30;94.20;;;;;;5040860;28;20060;-92
2021/12/11 06:05:16;;;;;;;9.68;4.55;;;5.30;94.20;;;;;;5055964;28;20021;-90
2021/12/11 06:07:43;;;;;;;8.73;4.35;;;5.30;94.20;;;;;;5042301;28;20029;-89
2021/12/11 06:10:15;;;;;;;11.23;4.15;;;5.30;94.20;;;;;;5026653;28;20026;-89
2021/12/11 06:12:43;;;;;;;9.63;4.93;;;5.30;94.20;;;;;;5028134;28;20423;-90
2021/12/11 06:15:10;;;;;;;12.27;5.55;;;5.30;94.20;;;;;;5038431;28;20033;-89
2021/12/11 06:17:38;;;;;;;13.07;5.13;;;5.30;94.20;;;;;;5051988;28;20415;-90
2021/12/11 06:20:06;;;;;;;8.43;4.47;;;5.30;94.20;;;;;;5044897;28;20025;-90
2021/12/11 06:22:34;;;;;;;10.45;4.38;;;5.30;94.20;;;;;;5036687;28;20030;-89
2021/12/11 06:25:04;;;;;;;9.90;4.57;;;5.30;94.20;;;;;;5057213;28;20047;-89
2021/12/11 06:27:30;;;;;;;11.68;4.07;;;5.30;94.20;;;;;;5043075;28;20107;-89
2021/12/11 06:29:57;;;;;;;12.60;4.45;;;5.30;94.20;;;;;;5050154;28;20025;-89
2021/12/11 06:32:24;;;;;;;12.68;5.03;;;5.40;94.20;;;;;;5036217;28;20022;-89
2021/12/11 06:34:55;;;;;;;10.15;4.10;;;5.40;94.30;;;;;;5025511;28;20022;-90
2021/12/11 06:37:22;;;;;;;11.70;4.10;;;5.40;94.20;;;;;;5036322;28;20393;-90
2021/12/11 06:39:51;;;;;;;10.43;3.60;;;5.40;94.20;;;;;;5042601;28;20088;-89
2021/12/11 06:42:19;;;;;;;9.95;3.88;;;5.40;94.20;;;;;;5037478;28;20034;-91
2021/12/11 06:44:48;;;;;;;12.93;3.67;;;5.30;94.20;;;;;;5049856;28;20079;-90
2021/12/11 06:47:15;;;;;;;9.27;4.13;;;5.40;94.20;;;;;;5049569;28;20039;-89
2021/12/11 06:49:42;;;;;;;11.57;4.03;;;5.30;94.20;;;;;;5042582;28;20036;-90
2021/12/11 06:52:20;;;;;;;7.60;3.65;;;5.40;94.30;;;;;;5035709;28;20029;-90
2021/12/11 06:54:46;;;;;;;8.15;3.63;;;5.40;94.30;;;;;;5048489;28;20033;-91
2021/12/11 06:57:13;;;;;;;10.15;4.50;;;5.40;94.30;;;;;;5047962;28;20021;-91
2021/12/11 06:59:39;;;;;;;7.43;3.92;;;5.40;94.30;;;;;;5048160;28;20040;-90
2021/12/11 07:02:06;;;;;;;12.38;4.07;;;5.40;94.20;;;;;;5047169;28;20040;-90
2021/12/11 07:04:33;;;;;;;10.90;4.43;;;5.40;94.20;;;;;;5054844;28;20033;-91
2021/12/11 07:07:03;;;;;;;8.77;4.22;;;5.40;94.10;;;;;;5039501;28;20088;-91
2021/12/11 07:09:29;;;;;;;8.55;4.60;;;5.30;94.10;;;;;;5055546;28;20032;-92
2021/12/11 07:11:57;;;;;;;10.27;4.45;;;5.30;94.10;;;;;;5034372;28;20025;-90
2021/12/11 07:14:27;;;;;;;7.95;4.50;;;5.30;94.10;;;;;;5050502;28;20032;-90
2021/12/11 07:16:54;;;;;;;12.85;4.20;;;5.30;94.20;;;;;;5043736;28;20022;-89
2021/12/11 07:19:20;;;;;;;13.00;4.60;;;5.30;94.20;;;;;;5044836;28;20033;-89
2021/12/11 07:21:50;;;;;;;12.05;4.18;;;5.30;94.20;;;;;;5038381;28;20032;-86
2021/12/11 07:24:19;;;;;;;10.80;4.35;;;5.30;94.20;;;;;;5024642;28;20033;-87
2021/12/11 07:26:45;;;;;;;10.55;4.30;;;5.30;94.20;;;;;;5035777;28;20116;-88
2021/12/11 07:29:14;;;;;;;20.08;7.90;;;5.30;94.20;;;;;;5036872;28;20112;-88
2021/12/11 07:31:43;;;;;;;32.50;12.45;;;5.30;94.20;;;;;;5048925;28;20044;-86
2021/12/11 07:34:09;;;;;;;25.08;10.65;;;5.30;94.20;;;;;;5049553;28;20028;-88
2021/12/11 07:36:36;;;;;;;25.15;9.82;;;5.30;94.20;;;;;;5035815;28;20025;-88
2021/12/11 07:39:07;;;;;;;23.00;10.23;;;5.30;94.20;;;;;;5042292;28;20064;-89
2021/12/11 07:41:33;;;;;;;21.38;9.13;;;5.30;94.20;;;;;;5037311;28;20376;-89
2021/12/11 07:44:00;;;;;;;22.77;9.63;;;5.30;94.20;;;;;;5047488;28;20029;-92
2021/12/11 07:46:28;;;;;;;23.85;11.70;;;5.30;94.20;;;;;;5035276;28;20032;-93
2021/12/11 07:48:54;;;;;;;33.08;13.52;;;5.30;94.20;;;;;;5042545;28;20036;-78
2021/12/11 07:51:22;;;;;;;30.88;11.57;;;5.30;94.20;;;;;;5050849;28;20021;-89
2021/12/11 07:53:49;;;;;;;29.17;13.70;;;5.40;94.30;;;;;;5048694;28;20033;-82
2021/12/11 07:56:17;;;;;;;27.73;11.60;;;5.40;94.30;;;;;;5042382;28;20025;-83
2021/12/11 07:58:44;;;;;;;24.88;11.80;;;5.40;94.30;;;;;;5054327;28;20514;-81
2021/12/11 08:01:11;;;;;;;24.58;10.95;;;5.40;94.30;;;;;;5041861;28;20021;-84
2021/12/11 08:03:42;;;;;;;26.98;10.55;;;5.40;94.30;;;;;;5044439;28;20029;-85
2021/12/11 08:06:10;;;;;;;25.42;9.45;;;5.40;94.30;;;;;;5036023;28;20018;-87
2021/12/11 08:08:37;;;;;;;18.80;8.73;;;5.40;94.30;;;;;;5049780;28;20049;-78
2021/12/11 08:11:12;;;;;;;20.25;8.77;;;5.40;94.30;;;;;;5038318;28;20468;-81
2021/12/11 08:13:43;;;;;;;19.35;9.18;;;5.40;94.30;;;;;;5039254;28;20017;-84
2021/12/11 08:16:11;;;;;;;17.02;9.30;;;5.40;94.30;;;;;;5046518;28;20431;-82
2021/12/11 08:18:37;;;;;;;17.25;9.10;;;5.40;94.40;;;;;;5047838;28;20032;-79
2021/12/11 08:21:04;;;;;;;16.55;8.25;;;5.40;94.40;;;;;;5047893;28;20025;-75
2021/12/11 08:23:30;;;;;;;15.85;8.75;;;5.50;94.40;;;;;;5049794;28;20025;-79
2021/12/11 08:25:57;;;;;;;21.35;8.95;;;5.50;94.40;;;;;;5053755;28;20384;-80
2021/12/11 08:28:28;;;;;;;16.73;7.30;;;5.50;94.50;;;;;;5040197;28;20380;-77
2021/12/11 08:30:55;;;;;;;14.00;6.88;;;5.50;94.50;;;;;;5056297;28;20033;-78
2021/12/11 08:33:22;;;;;;;12.52;6.78;;;5.60;94.60;;;;;;5044767;28;20029;-78
2021/12/11 08:35:50;;;;;;;12.18;6.38;;;5.60;94.60;;;;;;5040080;28;20025;-79
2021/12/11 08:38:17;;;;;;;23.50;10.05;;;5.60;94.60;;;;;;5039810;28;20021;-78
2021/12/11 08:40:48;;;;;;;66.28;34.08;;;5.70;94.70;;;;;;5049053;28;20049;-78
2021/12/11 08:43:16;;;;;;;54.58;27.40;;;5.80;94.80;;;;;;5051296;28;20032;-81
2021/12/11 08:45:48;;;;;;;46.78;22.98;;;5.70;94.80;;;;;;5039414;28;20033;-76
2021/12/11 08:48:20;;;;;;;30.27;16.95;;;5.80;94.80;;;;;;5040903;28;20018;-88
2021/12/11 08:50:50;;;;;;;29.25;13.70;;;5.80;94.80;;;;;;5058796;28;20043;-76
2021/12/11 08:53:18;;;;;;;24.60;12.82;;;5.90;94.90;;;;;;5051832;28;20163;-78
2021/12/11 08:55:47;;;;;;;25.20;12.77;;;5.80;94.90;;;;;;5032377;28;20092;-89
2021/12/11 08:58:16;;;;;;;24.60;12.38;;;5.90;94.90;;;;;;5050663;28;20021;-83
2021/12/11 09:00:51;;;;;;;22.63;11.10;;;5.90;94.90;;;;;;5052523;28;20021;-76
2021/12/11 09:03:29;;;;;;;19.35;10.73;;;6.00;95.00;;;;;;5040071;28;20112;-76
2021/12/11 09:06:33;;;;;;;19.73;9.93;;;6.00;95.00;;;;;;5049682;28;20040;-76
2021/12/11 09:09:13;;;;;;;19.92;9.95;;;6.00;95.10;;;;;;5018074;28;20042;-75
2021/12/11 09:11:46;;;;;;;24.08;12.38;;;6.10;95.10;;;;;;5038522;28;20068;-76
2021/12/11 09:14:30;;;;;;;25.55;13.20;;;6.10;95.20;;;;;;5038139;28;20017;-76
2021/12/11 09:17:15;;;;;;;32.40;16.95;;;6.20;95.20;;;;;;5037827;28;20034;-76
2021/12/11 09:19:59;;;;;;;25.60;14.00;;;6.30;95.30;;;;;;5032656;28;20519;-76
2021/12/11 09:22:35;;;;;;;26.35;11.95;;;6.30;95.30;;;;;;5029657;28;20029;-76
2021/12/11 09:25:41;;;;;;;22.38;10.38;;;6.40;95.40;;;;;;5038537;28;20025;-76
2021/12/11 09:28:43;;;;;;;20.52;10.18;;;6.50;95.50;;;;;;5035094;28;20460;-76
2021/12/11 09:31:14;;;;;;;24.20;11.88;;;6.60;95.60;;;;;;5036847;28;20048;-73
2021/12/11 09:33:48;;;;;;;174.25;83.38;;;6.70;95.60;;;;;;5038566;28;20101;-75
2021/12/11 09:36:22;;;;;;;61.42;33.83;;;6.80;95.60;;;;;;5038658;28;20030;-73
2021/12/11 09:38:54;;;;;;;40.30;20.52;;;6.80;95.60;;;;;;5037190;28;20089;-75
2021/12/11 09:41:24;;;;;;;26.80;14.10;;;6.90;95.80;;;;;;5037608;28;20021;-76
2021/12/11 09:44:05;;;;;;;25.88;12.52;;;7.00;95.60;;;;;;5038625;28;20018;-74
2021/12/11 09:46:40;;;;;;;24.83;11.43;;;7.00;95.50;;;;;;5037855;28;20381;-75
2021/12/11 09:49:10;;;;;;;23.17;9.95;;;7.10;95.60;;;;;;5037936;28;20066;-73
2021/12/11 09:51:42;;;;;;;20.77;10.65;;;7.10;95.60;;;;;;5038644;28;20060;-80
2021/12/11 09:54:13;;;;;;;16.42;9.55;;;7.20;95.60;;;;;;5036740;28;20025;-73
2021/12/11 09:56:46;;;;;;;23.15;10.13;;;7.20;95.60;;;;;;5038596;28;20028;-75
2021/12/11 09:59:15;;;;;;;19.55;9.02;;;7.30;95.70;;;;;;5037889;28;20144;-75
2021/12/11 10:01:46;;;;;;;23.90;12.30;;;7.40;95.80;;;;;;5038010;28;20029;-74
2021/12/11 10:04:40;;;;;;;37.33;17.50;;;7.50;95.80;;;;;;5037381;28;20091;-74
2021/12/11 10:07:30;;;;;;;39.47;20.17;;;7.60;95.80;;;;;;5033148;28;20076;-72
2021/12/11 10:10:06;;;;;;;34.65;17.83;;;7.70;95.80;;;;;;5038211;28;20021;-73
2021/12/11 10:12:36;;;;;;;32.35;16.80;;;7.70;95.80;;;;;;5032110;28;20095;-74
2021/12/11 10:15:14;;;;;;;25.60;13.27;;;7.90;95.80;;;;;;5038175;28;20468;-76
2021/12/11 10:17:47;;;;;;;29.27;13.75;;;8.00;95.90;;;;;;5028692;28;20080;-73
2021/12/11 10:20:26;;;;;;;21.92;12.98;;;8.10;95.90;;;;;;5034296;28;20025;-74
2021/12/11 10:22:56;;;;;;;31.38;16.48;;;8.20;95.90;;;;;;5033473;28;20492;-75
2021/12/11 10:25:30;;;;;;;49.97;22.58;;;8.30;95.80;;;;;;5036750;28;20036;-76
2021/12/11 10:28:03;;;;;;;48.40;22.30;;;8.40;95.80;;;;;;5036531;28;20128;-77
2021/12/11 10:30:31;;;;;;;36.70;17.98;;;8.50;95.70;;;;;;5034842;28;20029;-76
2021/12/11 10:32:57;;;;;;;31.95;14.85;;;8.50;95.70;;;;;;5037442;28;20071;-77
2021/12/11 10:35:33;;;;;;;27.73;14.63;;;8.60;95.70;;;;;;5037521;28;20021;-76
2021/12/11 10:38:02;;;;;;;24.40;12.63;;;8.60;95.70;;;;;;5034853;28;20045;-76
2021/12/11 10:40:31;;;;;;;53.33;26.38;;;8.70;95.90;;;;;;5037638;28;20049;-74
2021/12/11 10:43:03;;;;;;;97.88;54.22;;;8.80;95.90;;;;;;5034968;28;20705;-76
2021/12/11 10:45:30;;;;;;;43.10;19.65;;;8.90;96.00;;;;;;5031876;28;20104;-74
2021/12/11 10:48:02;;;;;;;31.80;12.88;;;9.00;95.90;;;;;;5036313;28;20087;-75
2021/12/11 10:50:34;;;;;;;21.42;11.18;;;9.10;95.90;;;;;;5036376;28;20056;-73
2021/12/11 10:53:01;;;;;;;20.05;9.48;;;9.10;95.70;;;;;;5037140;28;20033;-73
2021/12/11 10:55:31;;;;;;;25.42;10.25;;;9.20;95.60;;;;;;5037435;28;20029;-73
2021/12/11 10:58:04;;;;;;;22.33;11.00;;;9.20;95.60;;;;;;5036424;28;20018;-73
2021/12/11 11:00:45;;;;;;;16.20;9.55;;;9.20;95.60;;;;;;5036907;28;20026;-73
2021/12/11 11:03:13;;;;;;;19.65;9.32;;;9.30;95.70;;;;;;5036601;28;20152;-75
2021/12/11 11:05:39;;;;;;;23.00;10.95;;;9.40;95.90;;;;;;5037086;28;20087;-73
2021/12/11 11:08:07;;;;;;;23.25;10.45;;;9.60;95.90;;;;;;5036950;28;20060;-74
2021/12/11 11:10:37;;;;;;;29.88;10.10;;;9.70;95.70;;;;;;5035387;28;20030;-64
2021/12/11 11:13:08;;;;;;;29.13;11.63;;;9.80;95.50;;;;;;5034124;28;20025;-74
2021/12/11 11:15:34;;;;;;;25.00;11.70;;;9.80;95.30;;;;;;5035442;28;20018;-73
2021/12/11 11:18:01;;;;;;;22.85;10.35;;;9.90;95.40;;;;;;5036028;28;20502;-74
2021/12/11 11:20:39;;;;;;;22.48;10.30;;;9.90;95.30;;;;;;5035237;28;20036;-73
2021/12/11 11:23:07;;;;;;;20.77;9.70;;;9.90;95.20;;;;;;5024466;28;20543;-74
2021/12/11 11:25:45;;;;;;;24.17;11.27;;;10.00;95.40;;;;;;5037021;28;20025;-74
2021/12/11 11:28:14;;;;;;;29.70;11.23;;;10.00;95.10;;;;;;5037100;28;20029;-73
2021/12/11 11:30:44;;;;;;;22.55;10.68;;;10.00;95.10;;;;;;5036835;28;20079;-73
2021/12/11 11:33:11;;;;;;;22.45;11.32;;;10.10;95.10;;;;;;5034113;28;20024;-73
2021/12/11 11:35:42;;;;;;;28.08;11.00;;;10.10;95.00;;;;;;5035519;28;20028;-74
2021/12/11 11:38:13;;;;;;;26.20;10.73;;;10.10;95.00;;;;;;5035958;28;20030;-74
2021/12/11 11:40:41;;;;;;;27.02;10.23;;;10.10;95.00;;;;;;5052011;28;20049;-73
2021/12/11 11:43:08;;;;;;;24.35;9.60;;;10.10;95.00;;;;;;5037451;28;20033;-73
2021/12/11 11:45:36;;;;;;;30.30;10.10;;;10.10;94.90;;;;;;5040659;28;20018;-73
2021/12/11 11:48:02;;;;;;;19.05;8.45;;;10.10;94.90;;;;;;5042064;28;20033;-73
2021/12/11 11:50:36;;;;;;;18.90;8.45;;;10.10;94.90;;;;;;5040602;28;20386;-73
2021/12/11 11:53:03;;;;;;;25.33;10.40;;;10.20;95.00;;;;;;5036760;28;20064;-73
2021/12/11 11:55:35;;;;;;;18.17;7.72;;;10.20;95.00;;;;;;5039254;28;20064;-73
2021/12/11 11:58:02;;;;;;;20.27;7.93;;;10.20;95.00;;;;;;5040435;28;20060;-73
2021/12/11 12:00:43;;;;;;;21.95;8.05;;;10.20;95.00;;;;;;5040365;28;20041;-74
2021/12/11 12:03:11;;;;;;;18.45;7.50;;;10.20;95.00;;;;;;5037379;28;20025;-74
2021/12/11 12:05:39;;;;;;;24.70;8.40;;;10.30;95.10;;;;;;5052610;28;20041;-75
2021/12/11 12:08:07;;;;;;;23.80;8.05;;;10.30;95.10;;;;;;5039833;28;20537;-74
2021/12/11 12:10:34;;;;;;;24.75;8.77;;;10.30;95.10;;;;;;5039569;28;20037;-74
2021/12/11 12:13:03;;;;;;;24.25;8.57;;;10.40;95.40;;;;;;5037190;28;20024;-75
2021/12/11 12:15:36;;;;;;;30.95;8.50;;;10.40;95.10;;;;;;5039047;28;20030;-73
2021/12/11 12:18:02;;;;;;;25.42;9.48;;;10.50;95.20;;;;;;5035881;28;20068;-80
2021/12/11 12:20:27;;;;;;;25.77;9.15;;;10.50;95.20;;;;;;5038735;28;20038;-72
2021/12/11 12:22:55;;;;;;;25.83;11.73;;;10.60;95.50;;;;;;5039343;28;20558;-77
2021/12/11 12:25:21;;;;;;;19.88;9.18;;;10.60;95.30;;;;;;5038736;28;20400;-74
2021/12/11 12:27:48;;;;;;;21.17;10.40;;;10.60;95.30;;;;;;5039371;28;20033;-74
2021/12/11 12:30:22;;;;;;;112.30;44.28;;;10.70;95.30;;;;;;5039346;28;20021;-73
2021/12/11 12:32:51;;;;;;;47.67;19.48;;;10.70;95.10;;;;;;5035933;28;20028;-74
2021/12/11 12:35:19;;;;;;;49.45;20.25;;;10.70;94.90;;;;;;5037573;28;20021;-74
2021/12/11 12:37:45;;;;;;;44.63;17.98;;;10.70;94.80;;;;;;5039468;28;20021;-74
2021/12/11 12:40:22;;;;;;;51.03;20.85;;;10.70;94.80;;;;;;5038211;28;20073;-73
2021/12/11 12:42:54;;;;;;;57.72;19.05;;;10.80;94.90;;;;;;5037691;28;20021;-75
2021/12/11 12:45:32;;;;;;;51.63;18.88;;;10.70;94.80;;;;;;5038938;28;20026;-77
2021/12/11 12:48:05;;;;;;;49.47;17.65;;;10.80;94.80;;;;;;5038196;28;20503;-75
2021/12/11 12:50:52;;;;;;;36.92;12.27;;;10.80;94.80;;;;;;5038881;28;20392;-72
2021/12/11 12:53:19;;;;;;;37.13;10.82;;;10.90;94.80;;;;;;5035783;28;20396;-71
2021/12/11 12:55:52;;;;;;;27.75;8.43;;;10.90;94.70;;;;;;5038140;28;20017;-71
2021/12/11 12:58:27;;;;;;;41.92;9.48;;;10.90;94.60;;;;;;5038970;28;20104;-71
2021/12/11 13:00:57;;;;;;;25.15;6.95;;;10.90;94.50;;;;;;5025529;28;20037;-71
2021/12/11 13:03:27;;;;;;;34.70;11.02;;;10.90;94.50;;;;;;5037843;28;20028;-71
2021/12/11 13:06:03;;;;;;;42.50;11.63;;;11.00;94.40;;;;;;5039573;28;20117;-70
2021/12/11 13:08:40;;;;;;;58.15;26.20;;;11.10;94.30;;;;;;5038936;28;20026;-71
2021/12/11 13:11:11;;;;;;;48.45;18.55;;;11.10;94.40;;;;;;5039367;28;20112;-71
2021/12/11 13:13:38;;;;;;;32.65;11.18;;;11.10;94.30;;;;;;5036772;28;20075;-70
2021/12/11 13:16:14;;;;;;;35.85;9.73;;;11.20;94.30;;;;;;5039356;28;20053;-72